createdAt,value
2019-02-04T00:01:53.796Z,5.57
2019-02-04T00:04:24.504Z,8.47
2019-02-04T00:06:55.024Z,8.43
2019-02-04T00:09:25.429Z,5.43
2019-02-04T00:11:56.513Z,6.03
2019-02-04T00:14:27.120Z,6.20
2019-02-04T00:16:57.529Z,5.77
2019-02-04T00:19:27.879Z,4.90
2019-02-04T00:21:58.516Z,5.73
2019-02-04T00:24:29.440Z,4.93
2019-02-04T00:26:59.974Z,4.37
2019-02-04T00:29:30.708Z,4.60
2019-02-04T00:32:01.216Z,4.80
2019-02-04T00:34:31.677Z,4.63
2019-02-04T00:37:02.396Z,5.57
2019-02-04T00:39:32.923Z,4.00
2019-02-04T00:42:03.362Z,3.97
2019-02-04T00:44:33.975Z,4.53
2019-02-04T00:47:04.626Z,4.90
2019-02-04T00:49:35.155Z,5.17
2019-02-04T00:52:05.964Z,7.87
2019-02-04T00:54:36.744Z,7.90
2019-02-04T00:57:07.439Z,6.27
2019-02-04T00:59:38.169Z,10.90
2019-02-04T01:02:08.898Z,8.10
2019-02-04T01:04:39.639Z,6.30
2019-02-04T01:07:10.377Z,5.63
2019-02-04T01:09:41.002Z,4.93
2019-02-04T01:12:11.809Z,5.30
2019-02-04T01:14:42.379Z,5.83
2019-02-04T01:17:12.982Z,5.23
2019-02-04T01:19:43.532Z,5.10
2019-02-04T01:22:14.056Z,6.10
2019-02-04T01:24:44.589Z,9.07
2019-02-04T01:27:15.092Z,6.70
2019-02-04T01:29:46.028Z,6.77
2019-02-04T01:32:16.935Z,6.80
2019-02-04T01:34:49.016Z,7.03
2019-02-04T01:37:19.911Z,7.27
2019-02-04T01:39:50.666Z,5.97
2019-02-04T01:42:21.785Z,7.00
2019-02-04T01:44:52.296Z,7.17
2019-02-04T01:47:22.622Z,6.47
2019-02-04T01:49:53.092Z,8.10
2019-02-04T01:52:23.476Z,8.90
2019-02-04T01:54:53.899Z,7.20
2019-02-04T01:57:24.543Z,10.77
2019-02-04T01:59:55.164Z,7.07
2019-02-04T02:02:25.681Z,7.40
2019-02-04T02:04:56.328Z,8.87
2019-02-04T02:07:27.158Z,9.37
2019-02-04T02:09:57.894Z,11.10
2019-02-04T02:12:28.434Z,11.00
2019-02-04T02:14:58.856Z,12.93
2019-02-04T02:17:29.388Z,14.27
2019-02-04T02:19:59.804Z,11.97
2019-02-04T02:22:30.312Z,12.10
2019-02-04T02:25:00.755Z,8.40
2019-02-04T02:27:31.385Z,7.77
2019-02-04T02:30:01.928Z,8.10
2019-02-04T02:32:32.875Z,7.00
2019-02-04T02:35:03.684Z,6.40
2019-02-04T02:37:34.094Z,7.63
2019-02-04T02:40:05.694Z,7.73
2019-02-04T02:42:36.403Z,5.40
2019-02-04T02:45:08.328Z,5.93
2019-02-04T02:47:39.087Z,5.57
2019-02-04T02:50:10.386Z,5.63
2019-02-04T02:52:41.001Z,9.17
2019-02-04T02:55:13.504Z,6.10
2019-02-04T02:57:44.263Z,5.63
2019-02-04T03:00:17.534Z,5.50
2019-02-04T03:02:48.316Z,5.30
2019-02-04T03:05:19.553Z,5.97
2019-02-04T03:07:49.985Z,6.50
2019-02-04T03:10:24.337Z,6.20
2019-02-04T03:12:54.862Z,5.40
2019-02-04T03:15:25.494Z,6.97
2019-02-04T03:17:56.099Z,4.70
2019-02-04T03:20:27.016Z,5.87
2019-02-04T03:22:57.534Z,3.73
2019-02-04T03:25:28.090Z,7.40
2019-02-04T03:27:58.817Z,6.20
2019-02-04T03:30:35.142Z,6.07
2019-02-04T03:33:06.120Z,6.57
2019-02-04T03:35:36.790Z,11.40
2019-02-04T03:38:07.384Z,10.43
2019-02-04T03:40:38.104Z,8.73
2019-02-04T03:43:08.534Z,9.00
2019-02-04T03:45:39.054Z,7.63
2019-02-04T03:48:09.750Z,9.00
2019-02-04T03:50:40.357Z,7.10
2019-02-04T03:53:10.790Z,7.30
2019-02-04T03:55:41.282Z,7.20
2019-02-04T03:58:11.935Z,6.63
2019-02-04T04:00:42.535Z,7.30
2019-02-04T04:03:13.512Z,7.23
2019-02-04T04:05:43.904Z,7.97
2019-02-04T04:08:14.512Z,8.37
2019-02-04T04:10:45.264Z,10.37
2019-02-04T04:13:15.924Z,9.77
2019-02-04T04:15:46.733Z,10.63
2019-02-04T04:18:17.288Z,9.60
2019-02-04T04:20:47.802Z,10.23
2019-02-04T04:23:18.213Z,12.03
2019-02-04T04:25:48.751Z,10.87
2019-02-04T04:28:19.591Z,12.53
2019-02-04T04:30:50.020Z,12.20
2019-02-04T04:33:20.681Z,14.90
2019-02-04T04:35:51.288Z,17.77
2019-02-04T04:38:21.827Z,17.20
2019-02-04T04:40:52.558Z,17.30
2019-02-04T04:43:23.195Z,16.07
2019-02-04T04:45:53.704Z,14.70
2019-02-04T04:48:26.540Z,12.27
2019-02-04T04:50:56.270Z,15.93
2019-02-04T04:53:26.826Z,15.27
2019-02-04T04:55:57.360Z,13.47
2019-02-04T04:58:27.864Z,24.90
2019-02-04T05:00:58.410Z,47.60
2019-02-04T05:03:29.146Z,77.43
2019-02-04T05:05:59.981Z,50.70
2019-02-04T05:08:30.949Z,33.43
2019-02-04T05:11:01.671Z,39.53
2019-02-04T05:13:32.216Z,31.00
2019-02-04T05:16:02.800Z,30.17
2019-02-04T05:18:38.075Z,28.13
2019-02-04T05:21:05.702Z,26.60
2019-02-04T05:23:36.220Z,42.57
2019-02-04T05:26:06.788Z,41.17
2019-02-04T05:28:37.317Z,29.93
2019-02-04T05:31:08.024Z,26.03
2019-02-04T05:33:38.915Z,34.43
2019-02-04T05:36:09.739Z,34.67
2019-02-04T05:38:40.329Z,38.30
2019-02-04T05:41:11.198Z,54.83
2019-02-04T05:43:41.934Z,51.77
2019-02-04T05:46:12.735Z,62.93
2019-02-04T05:48:49.349Z,54.00
2019-02-04T05:51:15.766Z,50.40
2019-02-04T05:53:46.481Z,61.60
2019-02-04T05:56:17.294Z,63.20
2019-02-04T05:58:47.826Z,100.77
2019-02-04T06:01:18.359Z,134.00
2019-02-04T06:03:49.003Z,56.93
2019-02-04T06:06:19.624Z,55.87
2019-02-04T06:08:50.147Z,49.50
2019-02-04T06:11:20.828Z,35.07
2019-02-04T06:13:51.328Z,35.97
2019-02-04T06:16:22.247Z,33.87
2019-02-04T06:19:00.424Z,29.33
2019-02-04T06:21:24.962Z,32.70
2019-02-04T06:23:55.597Z,34.73
2019-02-04T06:26:25.800Z,38.30
2019-02-04T06:28:55.828Z,40.47
2019-02-04T06:31:26.565Z,32.73
2019-02-04T06:33:57.235Z,28.93
2019-02-04T06:36:27.527Z,33.67
2019-02-04T06:38:58.257Z,54.40
2019-02-04T06:41:29.111Z,33.17
2019-02-04T06:43:59.487Z,23.60
2019-02-04T06:46:29.632Z,19.47
2019-02-04T06:48:59.844Z,22.07
2019-02-04T06:51:31.769Z,30.13
2019-02-04T06:54:01.791Z,21.70
2019-02-04T06:56:31.835Z,19.23
2019-02-04T06:59:02.411Z,14.67
2019-02-04T07:01:33.095Z,14.40
2019-02-04T07:04:03.612Z,15.90
2019-02-04T07:06:34.154Z,16.47
2019-02-04T07:09:06.851Z,20.97
2019-02-04T07:11:37.354Z,22.30
2019-02-04T07:14:08.100Z,18.27
2019-02-04T07:16:39.052Z,17.73
2019-02-04T07:19:09.697Z,21.43
2019-02-04T07:21:40.095Z,39.10
2019-02-04T07:24:10.650Z,36.60
2019-02-04T07:26:41.137Z,34.93
2019-02-04T07:29:11.680Z,37.67
2019-02-04T07:31:41.867Z,34.27
2019-02-04T07:34:12.356Z,45.67
2019-02-04T07:36:42.674Z,46.10
2019-02-04T07:39:13.153Z,44.90
2019-02-04T07:41:43.157Z,35.50
2019-02-04T07:44:13.387Z,40.40
2019-02-04T07:46:44.264Z,41.30
2019-02-04T07:49:14.284Z,45.30
2019-02-04T07:51:44.539Z,47.77
2019-02-04T07:54:14.548Z,51.00
2019-02-04T07:56:44.685Z,47.23
2019-02-04T07:59:15.099Z,60.17
2019-02-04T08:01:45.304Z,53.60
2019-02-04T08:04:15.299Z,48.17
2019-02-04T08:06:45.850Z,33.50
2019-02-04T08:09:16.202Z,24.83
2019-02-04T08:11:46.396Z,23.20
2019-02-04T08:14:17.027Z,35.67
2019-02-04T08:16:47.524Z,29.87
2019-02-04T08:19:18.063Z,26.50
2019-02-04T08:21:48.799Z,19.63
2019-02-04T08:24:18.786Z,21.40
2019-02-04T08:26:49.641Z,22.87
2019-02-04T08:29:20.378Z,15.73
2019-02-04T08:31:50.924Z,17.83
2019-02-04T08:34:21.843Z,21.00
2019-02-04T08:36:52.155Z,18.33
2019-02-04T08:39:22.393Z,18.20
2019-02-04T08:41:53.132Z,19.60
2019-02-04T08:44:23.965Z,23.83
2019-02-04T08:46:54.678Z,27.57
2019-02-04T08:49:24.716Z,31.07
2019-02-04T08:51:55.380Z,31.43
2019-02-04T08:54:26.474Z,35.10
2019-02-04T08:56:57.278Z,31.87
2019-02-04T08:59:27.650Z,42.00
2019-02-04T09:01:58.174Z,38.80
2019-02-04T09:04:28.813Z,45.13
2019-02-04T09:06:59.517Z,46.63
2019-02-04T09:09:30.347Z,47.47
2019-02-04T09:12:00.784Z,34.43
2019-02-04T09:14:31.319Z,34.47
2019-02-04T09:17:01.847Z,29.97
2019-02-04T09:19:32.356Z,41.67
2019-02-04T09:22:02.897Z,40.20
2019-02-04T09:24:33.546Z,57.80
2019-02-04T09:27:04.254Z,43.33
2019-02-04T09:29:35.019Z,36.80
2019-02-04T09:32:05.670Z,55.83
2019-02-04T09:34:36.591Z,41.47
2019-02-04T09:37:07.644Z,43.70
2019-02-04T09:39:38.136Z,44.17
2019-02-04T09:42:08.861Z,49.30
2019-02-04T09:44:39.505Z,43.30
2019-02-04T09:47:10.424Z,45.10
2019-02-04T09:49:41.188Z,51.10
2019-02-04T09:52:11.400Z,49.50
2019-02-04T09:54:41.420Z,40.87
2019-02-04T09:57:11.550Z,37.13
2019-02-04T09:59:41.802Z,36.07
2019-02-04T10:02:12.417Z,34.73
2019-02-04T10:04:42.556Z,34.40
2019-02-04T10:07:12.703Z,29.27
2019-02-04T10:09:42.929Z,29.83
2019-02-04T10:12:13.222Z,25.80
2019-02-04T10:14:43.240Z,22.70
2019-02-04T10:17:13.562Z,22.37
2019-02-04T10:19:43.883Z,22.57
2019-02-04T10:22:14.141Z,24.70
2019-02-04T10:24:44.267Z,17.33
2019-02-04T10:27:14.479Z,20.90
2019-02-04T10:29:44.682Z,14.93
2019-02-04T10:32:14.794Z,9.47
2019-02-04T10:34:45.459Z,9.50
2019-02-04T10:37:15.897Z,14.20
2019-02-04T10:39:46.067Z,10.83
2019-02-04T10:42:16.230Z,12.13
2019-02-04T10:44:46.833Z,10.83
2019-02-04T10:47:17.595Z,10.60
2019-02-04T10:49:48.123Z,11.83
2019-02-04T10:52:18.790Z,11.47
2019-02-04T10:54:49.399Z,19.10
2019-02-04T10:57:20.211Z,13.20
2019-02-04T10:59:50.829Z,11.30
2019-02-04T11:02:21.415Z,11.27
2019-02-04T11:04:52.023Z,16.00
2019-02-04T11:07:22.877Z,15.77
2019-02-04T11:09:53.621Z,17.07
2019-02-04T11:12:24.316Z,12.93
2019-02-04T11:14:54.839Z,14.80
2019-02-04T11:17:25.282Z,13.93
2019-02-04T11:19:56.232Z,15.53
2019-02-04T11:22:26.756Z,12.77
2019-02-04T11:24:57.146Z,14.10
2019-02-04T11:27:27.308Z,15.73
2019-02-04T11:29:58.176Z,13.90
2019-02-04T11:32:28.888Z,13.47
2019-02-04T11:34:59.045Z,14.40
2019-02-04T11:37:30.656Z,10.90
2019-02-04T11:40:01.599Z,11.00
2019-02-04T11:42:32.287Z,14.17
2019-02-04T11:45:02.681Z,28.33
2019-02-04T11:47:33.259Z,10.10
2019-02-04T11:50:04.527Z,9.97
2019-02-04T11:52:35.226Z,9.73
2019-02-04T11:55:06.400Z,10.27
2019-02-04T11:57:36.908Z,8.90
2019-02-04T12:00:10.426Z,7.40
2019-02-04T12:02:41.347Z,10.60
2019-02-04T12:05:13.326Z,13.50
2019-02-04T12:07:43.922Z,10.20
2019-02-04T12:10:26.770Z,9.23
2019-02-04T12:12:57.375Z,8.50
2019-02-04T12:15:27.892Z,9.43
2019-02-04T12:17:58.037Z,14.27
2019-02-04T12:20:29.082Z,9.13
2019-02-04T12:22:59.695Z,13.87
2019-02-04T12:25:30.324Z,11.40
2019-02-04T12:28:00.861Z,7.70
2019-02-04T12:30:33.796Z,7.00
2019-02-04T12:33:05.340Z,9.40
2019-02-04T12:35:35.573Z,9.23
2019-02-04T12:38:05.896Z,8.50
2019-02-04T12:40:37.172Z,15.13
2019-02-04T12:43:07.978Z,12.63
2019-02-04T12:45:39.875Z,9.00
2019-02-04T12:48:11.012Z,11.77
2019-02-04T12:50:41.641Z,7.83
2019-02-04T12:53:12.575Z,8.33
2019-02-04T12:55:43.240Z,7.93
2019-02-04T12:58:13.863Z,7.40
2019-02-04T13:00:44.471Z,14.83
2019-02-04T13:03:14.901Z,8.97
2019-02-04T13:05:51.978Z,9.00
2019-02-04T13:08:22.806Z,8.33
2019-02-04T13:10:53.580Z,10.03
2019-02-04T13:13:25.166Z,7.90
2019-02-04T13:15:55.720Z,7.90
2019-02-04T13:18:26.016Z,9.50
2019-02-04T13:20:56.402Z,11.90
2019-02-04T13:23:27.155Z,9.77
2019-02-04T13:25:57.457Z,8.70
2019-02-04T13:28:28.091Z,7.90
2019-02-04T13:30:58.612Z,8.50
2019-02-04T13:33:29.228Z,7.63
2019-02-04T13:35:59.660Z,12.40
2019-02-04T13:38:30.781Z,15.10
2019-02-04T13:41:08.146Z,11.40
2019-02-04T13:43:33.391Z,12.13
2019-02-04T13:46:05.886Z,10.30
2019-02-04T13:48:35.569Z,13.87
2019-02-04T13:51:06.576Z,9.60
2019-02-04T13:53:37.136Z,9.30
2019-02-04T13:56:07.784Z,11.07
2019-02-04T13:58:38.400Z,11.80
2019-02-04T14:01:08.918Z,7.67
2019-02-04T14:03:39.259Z,10.30
2019-02-04T14:06:11.188Z,10.30
2019-02-04T14:08:41.375Z,9.90
2019-02-04T14:11:11.523Z,9.20
2019-02-04T14:13:41.544Z,10.77
2019-02-04T14:16:11.952Z,14.90
2019-02-04T14:18:42.626Z,14.63
2019-02-04T14:21:13.363Z,35.90
2019-02-04T14:23:43.748Z,21.30
2019-02-04T14:26:15.803Z,28.87
2019-02-04T14:28:45.974Z,30.17
2019-02-04T14:31:15.990Z,37.50
2019-02-04T14:33:46.053Z,48.43
2019-02-04T14:36:16.554Z,38.00
2019-02-04T14:38:46.828Z,25.37
2019-02-04T14:41:16.841Z,17.10
2019-02-04T14:43:59.777Z,13.83
2019-02-04T14:46:59.532Z,23.30
2019-02-04T14:50:22.323Z,35.50
2019-02-04T14:53:38.239Z,34.60
2019-02-04T14:56:27.525Z,30.20
2019-02-04T14:59:36.129Z,31.90
2019-02-04T15:02:36.910Z,31.90
2019-02-04T15:05:23.136Z,37.60
2019-02-04T15:08:35.426Z,39.07
2019-02-04T15:11:34.467Z,40.60
2019-02-04T15:14:51.719Z,40.47
2019-02-04T15:17:58.821Z,31.80
2019-02-04T15:20:52.990Z,32.73
2019-02-04T15:23:55.242Z,33.77
2019-02-04T15:26:52.939Z,38.23
2019-02-04T15:29:46.200Z,41.07
2019-02-04T15:32:57.667Z,44.00
2019-02-04T15:36:23.666Z,37.13
2019-02-04T15:39:01.904Z,40.60
2019-02-04T15:42:11.653Z,30.37
2019-02-04T15:45:40.350Z,28.83
2019-02-04T15:48:22.956Z,28.83
2019-02-04T15:51:31.242Z,32.43
2019-02-04T15:54:04.135Z,38.13
2019-02-04T15:56:34.293Z,33.60
2019-02-04T15:59:04.409Z,41.90
2019-02-04T16:01:34.468Z,41.03
2019-02-04T16:04:26.803Z,40.83
2019-02-04T16:06:56.989Z,47.70
2019-02-04T16:09:27.248Z,43.13
2019-02-04T16:11:57.412Z,62.90
2019-02-04T16:14:27.602Z,68.87
2019-02-04T16:16:58.169Z,69.60
2019-02-04T16:19:28.386Z,54.97
2019-02-04T16:21:58.448Z,47.97
2019-02-04T16:24:28.678Z,54.50
2019-02-04T16:26:58.846Z,37.90
2019-02-04T16:29:29.422Z,35.23
2019-02-04T16:31:59.570Z,34.60
2019-02-04T16:34:29.482Z,39.03
2019-02-04T16:36:59.540Z,44.73
2019-02-04T16:39:29.934Z,40.00
2019-02-04T16:42:00.200Z,48.90
2019-02-04T16:44:30.404Z,37.50
2019-02-04T16:47:00.668Z,36.03
2019-02-04T16:49:30.681Z,42.90
2019-02-04T16:52:00.745Z,39.40
2019-02-04T16:54:30.934Z,42.67
2019-02-04T16:57:01.380Z,41.43
2019-02-04T16:59:31.488Z,46.73
2019-02-04T17:02:01.601Z,40.90
2019-02-04T17:04:31.837Z,33.00
2019-02-04T17:07:02.010Z,35.47
2019-02-04T17:09:32.017Z,31.60
2019-02-04T17:12:02.479Z,37.53
2019-02-04T17:14:32.677Z,32.80
2019-02-04T17:17:02.831Z,33.77
2019-02-04T17:19:32.959Z,27.90
2019-02-04T17:22:03.153Z,25.53
2019-02-04T17:24:33.208Z,24.67
2019-02-04T17:27:03.258Z,21.83
2019-02-04T17:29:33.472Z,23.80
2019-02-04T17:32:03.666Z,26.27
2019-02-04T17:34:33.598Z,26.30
2019-02-04T17:37:03.781Z,27.67
2019-02-04T17:39:34.494Z,28.83
2019-02-04T17:42:05.046Z,26.03
2019-02-04T17:44:34.941Z,25.40
2019-02-04T17:47:05.616Z,26.00
2019-02-04T17:49:36.161Z,36.30
2019-02-04T17:52:06.701Z,37.70
2019-02-04T17:54:36.877Z,26.40
2019-02-04T17:57:07.226Z,21.40
2019-02-04T17:59:37.471Z,22.63
2019-02-04T18:02:07.684Z,19.33
2019-02-04T18:04:37.734Z,21.37
2019-02-04T18:07:08.101Z,18.60
2019-02-04T18:09:38.165Z,16.80
2019-02-04T18:12:08.344Z,18.47
2019-02-04T18:14:38.558Z,13.13
2019-02-04T18:17:09.003Z,14.40
2019-02-04T18:19:39.205Z,15.50
2019-02-04T18:22:09.365Z,13.33
2019-02-04T18:24:39.671Z,15.47
2019-02-04T18:27:10.312Z,12.00
2019-02-04T18:29:40.230Z,36.27
2019-02-04T18:32:10.893Z,25.70
2019-02-04T18:34:41.374Z,43.47
2019-02-04T18:37:12.514Z,40.23
2019-02-04T18:39:42.763Z,28.17
2019-02-04T18:42:13.026Z,33.47
2019-02-04T18:44:43.569Z,32.83
2019-02-04T18:47:13.746Z,27.67
2019-02-04T18:49:43.940Z,27.47
2019-02-04T18:52:14.121Z,35.07
2019-02-04T18:54:44.484Z,27.20
2019-02-04T18:57:14.637Z,23.47
2019-02-04T18:59:44.857Z,17.20
2019-02-04T19:02:15.087Z,20.67
2019-02-04T19:04:45.190Z,22.97
2019-02-04T19:07:15.356Z,51.17
2019-02-04T19:09:45.561Z,52.70
2019-02-04T19:12:16.291Z,40.53
2019-02-04T19:14:46.200Z,37.97
2019-02-04T19:17:16.367Z,41.20
2019-02-04T19:19:46.587Z,36.57
2019-02-04T19:22:17.320Z,34.90
2019-02-04T19:24:47.948Z,24.70
2019-02-04T19:27:18.375Z,23.63
2019-02-04T19:29:48.912Z,46.53
2019-02-04T19:32:18.981Z,29.07
2019-02-04T19:34:49.192Z,27.53
2019-02-04T19:37:19.230Z,27.50
2019-02-04T19:39:49.899Z,29.13
2019-02-04T19:42:19.996Z,27.93
2019-02-04T19:44:50.246Z,35.80
2019-02-04T19:47:20.428Z,35.10
2019-02-04T19:49:50.462Z,27.63
2019-02-04T19:52:20.639Z,27.03
2019-02-04T19:54:50.841Z,25.70
2019-02-04T19:57:20.990Z,17.53
2019-02-04T19:59:51.006Z,16.57
2019-02-04T20:02:21.180Z,13.60
2019-02-04T20:04:51.381Z,14.73
2019-02-04T20:07:22.032Z,19.23
2019-02-04T20:09:52.159Z,17.40
2019-02-04T20:12:22.364Z,22.13
2019-02-04T20:14:52.591Z,18.47
2019-02-04T20:17:22.851Z,18.33
2019-02-04T20:19:52.767Z,18.20
2019-02-04T20:22:23.202Z,16.23
2019-02-04T20:24:53.400Z,18.93
2019-02-04T20:27:23.661Z,22.50
2019-02-04T20:29:53.785Z,17.23
2019-02-04T20:32:23.858Z,16.20
2019-02-04T20:34:54.073Z,16.27
2019-02-04T20:37:24.246Z,17.10
2019-02-04T20:39:54.167Z,15.47
2019-02-04T20:42:24.811Z,29.47
2019-02-04T20:44:55.005Z,19.00
2019-02-04T20:47:25.167Z,43.23
2019-02-04T20:49:55.571Z,39.67
2019-02-04T20:52:25.635Z,39.97
2019-02-04T20:54:55.816Z,36.07
2019-02-04T20:57:25.990Z,21.87
2019-02-04T20:59:56.209Z,24.90
2019-02-04T21:02:26.531Z,23.43
2019-02-04T21:04:56.814Z,19.57
2019-02-04T21:07:26.882Z,16.67
2019-02-04T21:09:57.097Z,15.97
2019-02-04T21:12:27.276Z,16.00
2019-02-04T21:14:57.294Z,35.50
2019-02-04T21:17:27.372Z,47.80
2019-02-04T21:19:57.574Z,20.47
2019-02-04T21:22:27.730Z,21.13
2019-02-04T21:24:57.813Z,24.30
2019-02-04T21:27:27.978Z,23.90
2019-02-04T21:29:58.243Z,28.77
2019-02-04T21:32:28.487Z,24.00
2019-02-04T21:34:58.698Z,20.90
2019-02-04T21:37:28.746Z,25.27
2019-02-04T21:39:58.773Z,18.67
2019-02-04T21:42:28.970Z,22.87
2019-02-04T21:44:59.200Z,14.53
2019-02-04T21:47:29.377Z,10.90
2019-02-04T21:50:00.082Z,9.83
2019-02-04T21:52:30.623Z,9.23
2019-02-04T21:55:08.060Z,18.60
2019-02-04T21:57:32.663Z,12.27
2019-02-04T22:00:04.997Z,16.40
2019-02-04T22:02:34.920Z,19.87
2019-02-04T22:05:05.571Z,16.30
2019-02-04T22:07:35.507Z,15.47
2019-02-04T22:10:08.331Z,17.97
2019-02-04T22:12:38.603Z,19.00
2019-02-04T22:15:09.389Z,15.37
2019-02-04T22:17:39.504Z,15.80
2019-02-04T22:20:11.182Z,13.40
2019-02-04T22:22:41.295Z,21.23
2019-02-04T22:25:19.510Z,32.97
2019-02-04T22:27:43.480Z,28.97
2019-02-04T22:30:16.764Z,25.63
2019-02-04T22:32:46.771Z,24.37
2019-02-04T22:35:16.885Z,31.27
2019-02-04T22:37:47.406Z,31.70
2019-02-04T22:40:29.917Z,29.47
2019-02-04T22:43:00.610Z,28.57
2019-02-04T22:45:30.992Z,30.70
2019-02-04T22:48:01.007Z,34.40
2019-02-04T22:50:32.352Z,30.37
2019-02-04T22:53:02.850Z,29.07
2019-02-04T22:55:32.990Z,29.60
2019-02-04T22:58:03.151Z,29.30
2019-02-04T23:00:54.349Z,30.40
2019-02-04T23:03:24.889Z,24.67
2019-02-04T23:05:55.399Z,25.20
2019-02-04T23:08:25.543Z,23.47
2019-02-04T23:10:55.684Z,22.40
2019-02-04T23:13:25.821Z,23.53
2019-02-04T23:15:56.537Z,24.20
2019-02-04T23:18:26.660Z,26.13
2019-02-04T23:20:56.754Z,27.07
2019-02-04T23:23:26.785Z,25.23
2019-02-04T23:25:56.895Z,25.03
2019-02-04T23:28:27.533Z,22.83
2019-02-04T23:30:57.772Z,27.87
2019-02-04T23:33:34.159Z,30.60
2019-02-04T23:35:59.775Z,29.23
2019-02-04T23:38:29.955Z,21.33
2019-02-04T23:41:00.170Z,19.20
2019-02-04T23:43:30.407Z,23.73
2019-02-04T23:46:00.495Z,23.10
2019-02-04T23:48:30.544Z,19.70
2019-02-04T23:51:00.754Z,22.97
2019-02-04T23:53:30.915Z,21.53
2019-02-04T23:56:01.204Z,16.33
2019-02-04T23:58:31.298Z,16.57
